sensor_id;sensor_type;location;lat;lon;timestamp;P1;P2;P0
72854;PMS7003;60991;51.278;22.550;2023-04-25T00:01:22;16.75;16.00;11.00
72854;PMS7003;60991;51.278;22.550;2023-04-25T00:02:52;15.00;13.50;10.75
72854;PMS7003;60991;51.278;22.550;2023-04-25T00:04:22;17.50;15.00;11.00
72854;PMS7003;60991;51.278;22.550;2023-04-25T00:05:52;13.25;12.50;10.25
72854;PMS7003;60991;51.278;22.550;2023-04-25T00:07:24;17.50;16.00;12.25
72854;PMS7003;60991;51.278;22.550;2023-04-25T00:08:55;17.50;15.75;12.00
72854;PMS7003;60991;51.278;22.550;2023-04-25T00:10:25;18.50;18.25;11.00
72854;PMS7003;60991;51.278;22.550;2023-04-25T00:11:56;13.50;13.50;10.00
72854;PMS7003;60991;51.278;22.550;2023-04-25T00:13:26;12.25;11.75;9.75
72854;PMS7003;60991;51.278;22.550;2023-04-25T00:14:56;11.50;11.50;9.50
72854;PMS7003;60991;51.278;22.550;2023-04-25T00:16:26;12.25;12.25;10.00
72854;PMS7003;60991;51.278;22.550;2023-04-25T00:17:56;19.50;18.25;13.25
72854;PMS7003;60991;51.278;22.550;2023-04-25T00:19:27;18.75;14.25;9.75
72854;PMS7003;60991;51.278;22.550;2023-04-25T00:20:57;17.00;15.00;11.75
72854;PMS7003;60991;51.278;22.550;2023-04-25T00:22:28;18.00;17.00;13.00
72854;PMS7003;60991;51.278;22.550;2023-04-25T00:23:58;16.75;14.00;9.50
72854;PMS7003;60991;51.278;22.550;2023-04-25T00:25:29;19.75;18.75;14.00
72854;PMS7003;60991;51.278;22.550;2023-04-25T00:26:59;16.75;15.75;12.50
72854;PMS7003;60991;51.278;22.550;2023-04-25T00:28:29;18.75;17.25;11.25
72854;PMS7003;60991;51.278;22.550;2023-04-25T00:30:00;17.25;17.25;13.75
72854;PMS7003;60991;51.278;22.550;2023-04-25T00:31:30;14.00;13.50;10.75
72854;PMS7003;60991;51.278;22.550;2023-04-25T00:33:00;19.50;16.75;13.00
72854;PMS7003;60991;51.278;22.550;2023-04-25T00:34:30;16.75;15.75;14.00
72854;PMS7003;60991;51.278;22.550;2023-04-25T00:36:01;12.50;12.50;9.00
72854;PMS7003;60991;51.278;22.550;2023-04-25T00:37:31;17.25;15.75;11.50
72854;PMS7003;60991;51.278;22.550;2023-04-25T00:39:01;17.00;15.75;13.00
72854;PMS7003;60991;51.278;22.550;2023-04-25T00:40:31;16.50;15.75;11.50
72854;PMS7003;60991;51.278;22.550;2023-04-25T00:42:02;18.00;15.25;12.50
72854;PMS7003;60991;51.278;22.550;2023-04-25T00:43:32;19.00;17.75;13.25
72854;PMS7003;60991;51.278;22.550;2023-04-25T00:45:04;16.25;16.25;13.25
72854;PMS7003;60991;51.278;22.550;2023-04-25T00:46:35;16.50;14.75;12.25
72854;PMS7003;60991;51.278;22.550;2023-04-25T00:48:06;18.25;18.25;13.75
72854;PMS7003;60991;51.278;22.550;2023-04-25T00:49:36;14.50;13.50;12.50
72854;PMS7003;60991;51.278;22.550;2023-04-25T00:51:07;16.00;15.50;12.25
72854;PMS7003;60991;51.278;22.550;2023-04-25T00:52:41;16.25;14.75;13.25
72854;PMS7003;60991;51.278;22.550;2023-04-25T00:54:14;23.00;17.00;12.00
72854;PMS7003;60991;51.278;22.550;2023-04-25T00:55:44;26.25;19.50;14.50
72854;PMS7003;60991;51.278;22.550;2023-04-25T00:57:14;19.00;16.00;13.75
72854;PMS7003;60991;51.278;22.550;2023-04-25T00:58:45;19.00;17.00;13.50
72854;PMS7003;60991;51.278;22.550;2023-04-25T01:00:15;16.50;16.50;12.50
72854;PMS7003;60991;51.278;22.550;2023-04-25T01:01:46;21.00;19.75;13.00
72854;PMS7003;60991;51.278;22.550;2023-04-25T01:03:16;18.75;17.75;13.50
72854;PMS7003;60991;51.278;22.550;2023-04-25T01:04:47;15.25;15.00;11.50
72854;PMS7003;60991;51.278;22.550;2023-04-25T01:06:18;18.00;17.25;11.50
72854;PMS7003;60991;51.278;22.550;2023-04-25T01:07:48;17.00;14.75;12.50
72854;PMS7003;60991;51.278;22.550;2023-04-25T01:09:18;17.75;17.25;12.75
72854;PMS7003;60991;51.278;22.550;2023-04-25T01:10:49;17.00;16.75;13.00
72854;PMS7003;60991;51.278;22.550;2023-04-25T01:12:19;11.25;9.75;6.00
72854;PMS7003;60991;51.278;22.550;2023-04-25T01:13:50;17.75;17.75;12.75
72854;PMS7003;60991;51.278;22.550;2023-04-25T01:15:21;16.00;16.00;12.25
72854;PMS7003;60991;51.278;22.550;2023-04-25T01:16:51;20.00;16.25;13.25
72854;PMS7003;60991;51.278;22.550;2023-04-25T01:18:21;16.75;15.50;11.50
72854;PMS7003;60991;51.278;22.550;2023-04-25T01:19:52;22.50;18.25;13.25
72854;PMS7003;60991;51.278;22.550;2023-04-25T01:21:22;21.75;15.50;12.00
72854;PMS7003;60991;51.278;22.550;2023-04-25T01:22:52;19.25;17.50;13.75
72854;PMS7003;60991;51.278;22.550;2023-04-25T01:24:23;19.50;16.25;12.50
72854;PMS7003;60991;51.278;22.550;2023-04-25T01:25:54;18.75;17.25;13.50
72854;PMS7003;60991;51.278;22.550;2023-04-25T01:27:24;18.75;18.75;14.00
72854;PMS7003;60991;51.278;22.550;2023-04-25T01:28:55;18.75;17.00;15.00
72854;PMS7003;60991;51.278;22.550;2023-04-25T01:30:26;18.25;16.75;12.50
72854;PMS7003;60991;51.278;22.550;2023-04-25T01:31:57;22.25;21.00;15.00
72854;PMS7003;60991;51.278;22.550;2023-04-25T01:33:27;18.75;17.00;13.50
72854;PMS7003;60991;51.278;22.550;2023-04-25T01:34:58;21.00;18.25;13.00
72854;PMS7003;60991;51.278;22.550;2023-04-25T01:36:28;16.50;16.00;13.00
72854;PMS7003;60991;51.278;22.550;2023-04-25T01:37:58;23.25;20.50;14.75
72854;PMS7003;60991;51.278;22.550;2023-04-25T01:39:30;18.25;18.25;13.50
72854;PMS7003;60991;51.278;22.550;2023-04-25T01:41:00;20.50;18.00;14.00
72854;PMS7003;60991;51.278;22.550;2023-04-25T01:42:32;25.50;23.25;15.25
72854;PMS7003;60991;51.278;22.550;2023-04-25T01:44:03;10.75;10.00;3.00
72854;PMS7003;60991;51.278;22.550;2023-04-25T01:45:33;20.50;16.00;13.25
72854;PMS7003;60991;51.278;22.550;2023-04-25T01:47:04;22.75;17.25;12.00
72854;PMS7003;60991;51.278;22.550;2023-04-25T01:48:34;22.00;21.00;14.25
72854;PMS7003;60991;51.278;22.550;2023-04-25T01:50:05;20.75;17.00;13.75
72854;PMS7003;60991;51.278;22.550;2023-04-25T01:51:37;20.00;16.50;14.00
72854;PMS7003;60991;51.278;22.550;2023-04-25T01:53:08;24.00;20.00;14.00
72854;PMS7003;60991;51.278;22.550;2023-04-25T01:54:40;21.75;16.25;13.00
72854;PMS7003;60991;51.278;22.550;2023-04-25T01:56:10;19.50;17.50;12.25
72854;PMS7003;60991;51.278;22.550;2023-04-25T01:57:41;22.50;17.75;12.00
72854;PMS7003;60991;51.278;22.550;2023-04-25T01:59:11;20.25;18.25;13.50
72854;PMS7003;60991;51.278;22.550;2023-04-25T02:00:41;18.50;16.00;14.00
72854;PMS7003;60991;51.278;22.550;2023-04-25T02:02:11;17.00;17.00;13.75
72854;PMS7003;60991;51.278;22.550;2023-04-25T02:03:41;18.75;15.50;11.00
72854;PMS7003;60991;51.278;22.550;2023-04-25T02:05:12;19.00;16.25;11.25
72854;PMS7003;60991;51.278;22.550;2023-04-25T02:06:43;16.00;15.00;12.00
72854;PMS7003;60991;51.278;22.550;2023-04-25T02:08:13;19.00;15.00;12.00
72854;PMS7003;60991;51.278;22.550;2023-04-25T02:09:43;18.00;18.00;14.50
72854;PMS7003;60991;51.278;22.550;2023-04-25T02:11:13;17.50;17.50;12.75
72854;PMS7003;60991;51.278;22.550;2023-04-25T02:12:44;16.75;15.00;12.50
72854;PMS7003;60991;51.278;22.550;2023-04-25T02:14:14;24.33;19.67;13.00
72854;PMS7003;60991;51.278;22.550;2023-04-25T02:15:45;13.75;12.25;11.25
72854;PMS7003;60991;51.278;22.550;2023-04-25T02:17:15;13.75;13.75;11.00
72854;PMS7003;60991;51.278;22.550;2023-04-25T02:18:45;16.75;15.25;9.25
72854;PMS7003;60991;51.278;22.550;2023-04-25T02:20:15;24.25;17.75;14.75
72854;PMS7003;60991;51.278;22.550;2023-04-25T02:21:45;16.00;15.00;11.75
72854;PMS7003;60991;51.278;22.550;2023-04-25T02:23:16;15.25;13.50;9.25
72854;PMS7003;60991;51.278;22.550;2023-04-25T02:24:46;19.75;14.75;12.25
72854;PMS7003;60991;51.278;22.550;2023-04-25T02:26:16;22.00;15.50;11.75
72854;PMS7003;60991;51.278;22.550;2023-04-25T02:27:47;16.50;15.50;11.75
72854;PMS7003;60991;51.278;22.550;2023-04-25T02:29:17;16.25;15.00;11.25
72854;PMS7003;60991;51.278;22.550;2023-04-25T02:30:48;15.00;13.75;11.25
72854;PMS7003;60991;51.278;22.550;2023-04-25T02:32:18;14.25;14.25;11.25
72854;PMS7003;60991;51.278;22.550;2023-04-25T02:33:48;8.00;6.00;5.00
72854;PMS7003;60991;51.278;22.550;2023-04-25T02:35:18;15.25;13.25;9.50
72854;PMS7003;60991;51.278;22.550;2023-04-25T02:36:48;15.75;15.25;12.00
72854;PMS7003;60991;51.278;22.550;2023-04-25T02:38:19;18.00;18.00;13.75
72854;PMS7003;60991;51.278;22.550;2023-04-25T02:39:49;18.50;16.00;10.25
72854;PMS7003;60991;51.278;22.550;2023-04-25T02:41:19;17.00;15.75;11.00
72854;PMS7003;60991;51.278;22.550;2023-04-25T02:42:49;21.00;15.25;11.50
72854;PMS7003;60991;51.278;22.550;2023-04-25T02:44:20;19.00;18.00;13.25
72854;PMS7003;60991;51.278;22.550;2023-04-25T02:45:50;17.25;14.00;10.25
72854;PMS7003;60991;51.278;22.550;2023-04-25T02:47:20;19.00;17.00;13.00
72854;PMS7003;60991;51.278;22.550;2023-04-25T02:48:51;23.00;19.25;13.50
72854;PMS7003;60991;51.278;22.550;2023-04-25T02:50:21;16.00;15.00;13.00
72854;PMS7003;60991;51.278;22.550;2023-04-25T02:51:51;20.50;16.00;12.00
72854;PMS7003;60991;51.278;22.550;2023-04-25T02:53:21;17.50;14.00;12.25
72854;PMS7003;60991;51.278;22.550;2023-04-25T02:54:51;18.75;18.00;12.00
72854;PMS7003;60991;51.278;22.550;2023-04-25T02:56:22;20.00;17.00;14.00
72854;PMS7003;60991;51.278;22.550;2023-04-25T02:57:52;18.00;16.75;12.00
72854;PMS7003;60991;51.278;22.550;2023-04-25T02:59:22;17.75;14.50;12.00
72854;PMS7003;60991;51.278;22.550;2023-04-25T03:00:53;22.50;18.50;11.25
72854;PMS7003;60991;51.278;22.550;2023-04-25T03:02:23;16.00;16.00;12.25
72854;PMS7003;60991;51.278;22.550;2023-04-25T03:03:53;18.25;16.75;13.75
72854;PMS7003;60991;51.278;22.550;2023-04-25T03:05:24;16.50;16.50;12.50
72854;PMS7003;60991;51.278;22.550;2023-04-25T03:06:54;15.25;13.25;11.50
72854;PMS7003;60991;51.278;22.550;2023-04-25T03:08:24;16.75;16.75;13.25
72854;PMS7003;60991;51.278;22.550;2023-04-25T03:09:55;19.00;15.67;13.00
72854;PMS7003;60991;51.278;22.550;2023-04-25T03:11:25;17.25;15.00;11.00
72854;PMS7003;60991;51.278;22.550;2023-04-25T03:12:55;17.00;14.75;8.25
72854;PMS7003;60991;51.278;22.550;2023-04-25T03:14:26;21.25;17.50;13.00
72854;PMS7003;60991;51.278;22.550;2023-04-25T03:15:56;15.50;14.50;11.25
72854;PMS7003;60991;51.278;22.550;2023-04-25T03:17:26;18.00;17.75;13.00
72854;PMS7003;60991;51.278;22.550;2023-04-25T03:18:56;17.00;14.25;11.50
72854;PMS7003;60991;51.278;22.550;2023-04-25T03:20:27;14.75;13.25;9.75
72854;PMS7003;60991;51.278;22.550;2023-04-25T03:21:57;14.50;14.50;11.50
72854;PMS7003;60991;51.278;22.550;2023-04-25T03:23:27;13.00;12.75;10.75
72854;PMS7003;60991;51.278;22.550;2023-04-25T03:24:58;15.00;14.00;10.50
72854;PMS7003;60991;51.278;22.550;2023-04-25T03:26:28;15.50;13.50;11.00
72854;PMS7003;60991;51.278;22.550;2023-04-25T03:27:58;10.75;9.25;5.50
72854;PMS7003;60991;51.278;22.550;2023-04-25T03:29:29;11.75;11.75;8.00
72854;PMS7003;60991;51.278;22.550;2023-04-25T03:30:59;10.75;8.50;6.25
72854;PMS7003;60991;51.278;22.550;2023-04-25T03:32:29;14.25;14.25;11.75
72854;PMS7003;60991;51.278;22.550;2023-04-25T03:33:59;19.50;13.25;9.75
72854;PMS7003;60991;51.278;22.550;2023-04-25T03:35:29;17.25;15.00;12.00
72854;PMS7003;60991;51.278;22.550;2023-04-25T03:37:00;15.75;12.75;9.25
72854;PMS7003;60991;51.278;22.550;2023-04-25T03:38:30;18.50;16.00;12.00
72854;PMS7003;60991;51.278;22.550;2023-04-25T03:40:00;13.00;13.00;8.75
72854;PMS7003;60991;51.278;22.550;2023-04-25T03:41:30;13.25;12.75;8.00
72854;PMS7003;60991;51.278;22.550;2023-04-25T03:43:00;14.00;12.75;8.75
72854;PMS7003;60991;51.278;22.550;2023-04-25T03:44:31;15.33;12.00;9.33
72854;PMS7003;60991;51.278;22.550;2023-04-25T03:46:01;14.50;14.50;11.00
72854;PMS7003;60991;51.278;22.550;2023-04-25T03:47:31;12.00;10.00;8.25
72854;PMS7003;60991;51.278;22.550;2023-04-25T03:49:01;13.67;12.33;9.00
72854;PMS7003;60991;51.278;22.550;2023-04-25T03:50:31;12.25;9.00;8.00
72854;PMS7003;60991;51.278;22.550;2023-04-25T03:52:02;9.25;9.25;7.00
72854;PMS7003;60991;51.278;22.550;2023-04-25T03:53:32;13.25;9.75;8.00
72854;PMS7003;60991;51.278;22.550;2023-04-25T03:55:03;15.25;11.50;9.00
72854;PMS7003;60991;51.278;22.550;2023-04-25T03:56:33;12.50;11.50;8.50
72854;PMS7003;60991;51.278;22.550;2023-04-25T03:58:04;17.25;13.75;8.50
72854;PMS7003;60991;51.278;22.550;2023-04-25T03:59:34;14.00;12.50;9.00
72854;PMS7003;60991;51.278;22.550;2023-04-25T04:01:04;15.50;13.00;9.00
72854;PMS7003;60991;51.278;22.550;2023-04-25T04:02:34;15.50;13.50;8.75
72854;PMS7003;60991;51.278;22.550;2023-04-25T04:04:04;12.00;10.25;8.75
72854;PMS7003;60991;51.278;22.550;2023-04-25T04:05:35;16.00;15.50;12.75
72854;PMS7003;60991;51.278;22.550;2023-04-25T04:07:05;19.50;15.25;12.25
72854;PMS7003;60991;51.278;22.550;2023-04-25T04:08:35;17.25;16.75;13.00
72854;PMS7003;60991;51.278;22.550;2023-04-25T04:10:06;14.00;13.00;9.50
72854;PMS7003;60991;51.278;22.550;2023-04-25T04:11:37;18.25;17.75;13.00
72854;PMS7003;60991;51.278;22.550;2023-04-25T04:13:08;18.50;16.75;12.50
72854;PMS7003;60991;51.278;22.550;2023-04-25T04:14:38;19.50;16.75;11.00
72854;PMS7003;60991;51.278;22.550;2023-04-25T04:16:08;19.00;16.75;10.25
72854;PMS7003;60991;51.278;22.550;2023-04-25T04:17:39;21.75;17.50;13.50
72854;PMS7003;60991;51.278;22.550;2023-04-25T04:19:09;16.25;15.00;10.00
72854;PMS7003;60991;51.278;22.550;2023-04-25T04:20:39;19.25;18.00;12.75
72854;PMS7003;60991;51.278;22.550;2023-04-25T04:22:09;16.50;16.25;12.50
72854;PMS7003;60991;51.278;22.550;2023-04-25T04:23:40;19.00;17.33;12.33
72854;PMS7003;60991;51.278;22.550;2023-04-25T04:25:10;22.00;17.33;13.00
72854;PMS7003;60991;51.278;22.550;2023-04-25T04:26:40;16.50;15.50;12.00
72854;PMS7003;60991;51.278;22.550;2023-04-25T04:28:10;20.00;18.50;13.00
72854;PMS7003;60991;51.278;22.550;2023-04-25T04:29:40;16.00;15.00;11.75
72854;PMS7003;60991;51.278;22.550;2023-04-25T04:31:11;17.50;17.50;13.25
72854;PMS7003;60991;51.278;22.550;2023-04-25T04:32:41;16.75;16.25;13.00
72854;PMS7003;60991;51.278;22.550;2023-04-25T04:34:11;18.50;17.00;13.00
72854;PMS7003;60991;51.278;22.550;2023-04-25T04:35:41;19.00;18.25;13.00
72854;PMS7003;60991;51.278;22.550;2023-04-25T04:37:12;16.25;15.25;12.00
72854;PMS7003;60991;51.278;22.550;2023-04-25T04:38:42;17.00;16.00;12.50
72854;PMS7003;60991;51.278;22.550;2023-04-25T04:40:12;16.50;15.50;12.00
72854;PMS7003;60991;51.278;22.550;2023-04-25T04:41:42;16.00;14.75;11.50
72854;PMS7003;60991;51.278;22.550;2023-04-25T04:43:12;16.50;16.50;12.00
72854;PMS7003;60991;51.278;22.550;2023-04-25T04:44:43;16.50;14.50;11.75
72854;PMS7003;60991;51.278;22.550;2023-04-25T04:46:13;22.75;22.75;14.25
72854;PMS7003;60991;51.278;22.550;2023-04-25T04:47:43;16.25;13.50;10.00
72854;PMS7003;60991;51.278;22.550;2023-04-25T04:49:14;20.50;19.25;13.75
72854;PMS7003;60991;51.278;22.550;2023-04-25T04:50:44;20.50;16.25;11.50
72854;PMS7003;60991;51.278;22.550;2023-04-25T04:52:14;16.50;16.00;11.50
72854;PMS7003;60991;51.278;22.550;2023-04-25T04:53:44;18.00;16.50;12.00
72854;PMS7003;60991;51.278;22.550;2023-04-25T04:55:14;21.33;16.67;12.00
72854;PMS7003;60991;51.278;22.550;2023-04-25T04:56:45;18.25;17.00;14.00
72854;PMS7003;60991;51.278;22.550;2023-04-25T04:58:15;18.00;16.00;10.75
72854;PMS7003;60991;51.278;22.550;2023-04-25T04:59:45;20.25;19.00;14.25
72854;PMS7003;60991;51.278;22.550;2023-04-25T05:01:15;21.75;17.50;13.25
72854;PMS7003;60991;51.278;22.550;2023-04-25T05:02:46;18.75;16.00;12.25
72854;PMS7003;60991;51.278;22.550;2023-04-25T05:04:16;16.75;16.00;13.25
72854;PMS7003;60991;51.278;22.550;2023-04-25T05:05:46;15.50;15.50;11.25
72854;PMS7003;60991;51.278;22.550;2023-04-25T05:07:16;20.50;18.75;14.00
72854;PMS7003;60991;51.278;22.550;2023-04-25T05:08:47;17.75;16.50;12.00
72854;PMS7003;60991;51.278;22.550;2023-04-25T05:10:18;13.00;13.00;9.25
72854;PMS7003;60991;51.278;22.550;2023-04-25T05:11:49;23.25;19.75;14.00
72854;PMS7003;60991;51.278;22.550;2023-04-25T05:13:19;19.00;16.33;13.00
72854;PMS7003;60991;51.278;22.550;2023-04-25T05:14:49;21.50;19.25;14.25
72854;PMS7003;60991;51.278;22.550;2023-04-25T05:16:20;17.00;14.33;12.00
72854;PMS7003;60991;51.278;22.550;2023-04-25T05:17:50;15.50;14.00;11.00
72854;PMS7003;60991;51.278;22.550;2023-04-25T05:19:20;17.75;15.50;11.50
72854;PMS7003;60991;51.278;22.550;2023-04-25T05:20:51;23.75;22.50;16.00
72854;PMS7003;60991;51.278;22.550;2023-04-25T05:22:21;20.75;20.50;16.00
72854;PMS7003;60991;51.278;22.550;2023-04-25T05:23:51;24.00;22.25;14.75
72854;PMS7003;60991;51.278;22.550;2023-04-25T05:25:21;23.00;19.00;14.00
72854;PMS7003;60991;51.278;22.550;2023-04-25T05:26:51;18.00;18.00;14.00
72854;PMS7003;60991;51.278;22.550;2023-04-25T05:28:22;15.25;14.00;10.25
72854;PMS7003;60991;51.278;22.550;2023-04-25T05:29:52;25.75;23.25;15.00
72854;PMS7003;60991;51.278;22.550;2023-04-25T05:31:22;25.00;22.25;15.00
72854;PMS7003;60991;51.278;22.550;2023-04-25T05:32:52;25.25;23.00;16.75
72854;PMS7003;60991;51.278;22.550;2023-04-25T05:34:23;28.25;24.75;15.50
72854;PMS7003;60991;51.278;22.550;2023-04-25T05:35:53;23.00;19.00;14.25
72854;PMS7003;60991;51.278;22.550;2023-04-25T05:37:23;30.00;24.67;17.33
72854;PMS7003;60991;51.278;22.550;2023-04-25T05:38:53;25.25;22.50;15.00
72854;PMS7003;60991;51.278;22.550;2023-04-25T05:40:24;21.00;16.33;13.33
72854;PMS7003;60991;51.278;22.550;2023-04-25T05:41:54;22.75;21.00;13.00
72854;PMS7003;60991;51.278;22.550;2023-04-25T05:43:24;22.75;19.00;14.00
72854;PMS7003;60991;51.278;22.550;2023-04-25T05:44:54;19.33;19.00;15.00
72854;PMS7003;60991;51.278;22.550;2023-04-25T05:46:24;23.67;18.33;13.00
72854;PMS7003;60991;51.278;22.550;2023-04-25T05:47:55;19.75;16.75;13.75
72854;PMS7003;60991;51.278;22.550;2023-04-25T05:49:25;20.00;17.50;12.75
72854;PMS7003;60991;51.278;22.550;2023-04-25T05:50:55;23.00;20.75;14.75
72854;PMS7003;60991;51.278;22.550;2023-04-25T05:52:25;22.75;18.00;13.75
72854;PMS7003;60991;51.278;22.550;2023-04-25T05:53:56;24.25;20.25;13.00
72854;PMS7003;60991;51.278;22.550;2023-04-25T05:55:26;29.00;22.50;15.25
72854;PMS7003;60991;51.278;22.550;2023-04-25T05:56:56;24.75;22.25;15.50
72854;PMS7003;60991;51.278;22.550;2023-04-25T05:58:27;24.25;18.75;13.00
72854;PMS7003;60991;51.278;22.550;2023-04-25T05:59:57;23.50;19.25;14.75
72854;PMS7003;60991;51.278;22.550;2023-04-25T06:01:27;23.25;20.75;15.00
72854;PMS7003;60991;51.278;22.550;2023-04-25T06:02:57;24.00;21.00;13.33
72854;PMS7003;60991;51.278;22.550;2023-04-25T06:04:27;25.00;24.67;15.00
72854;PMS7003;60991;51.278;22.550;2023-04-25T06:05:58;19.67;18.00;13.67
72854;PMS7003;60991;51.278;22.550;2023-04-25T06:07:28;21.67;19.67;15.00
72854;PMS7003;60991;51.278;22.550;2023-04-25T06:08:58;25.75;19.50;14.00
72854;PMS7003;60991;51.278;22.550;2023-04-25T06:10:28;18.25;17.00;11.00
72854;PMS7003;60991;51.278;22.550;2023-04-25T06:11:58;18.50;16.75;13.25
72854;PMS7003;60991;51.278;22.550;2023-04-25T06:13:29;21.00;19.67;15.00
72854;PMS7003;60991;51.278;22.550;2023-04-25T06:14:59;16.67;14.33;8.33
72854;PMS7003;60991;51.278;22.550;2023-04-25T06:16:30;22.25;21.25;16.00
72854;PMS7003;60991;51.278;22.550;2023-04-25T06:18:00;24.00;22.50;15.50
72854;PMS7003;60991;51.278;22.550;2023-04-25T06:19:30;21.00;19.50;14.00
72854;PMS7003;60991;51.278;22.550;2023-04-25T06:21:00;24.00;21.67;14.67
72854;PMS7003;60991;51.278;22.550;2023-04-25T06:22:31;21.50;20.00;15.50
72854;PMS7003;60991;51.278;22.550;2023-04-25T06:24:01;25.75;20.25;15.00
72854;PMS7003;60991;51.278;22.550;2023-04-25T06:25:31;21.25;19.75;13.00
72854;PMS7003;60991;51.278;22.550;2023-04-25T06:27:01;23.50;16.75;13.00
72854;PMS7003;60991;51.278;22.550;2023-04-25T06:28:32;24.00;22.75;14.50
72854;PMS7003;60991;51.278;22.550;2023-04-25T06:30:02;21.25;17.50;13.75
72854;PMS7003;60991;51.278;22.550;2023-04-25T06:31:32;24.25;20.75;15.00
72854;PMS7003;60991;51.278;22.550;2023-04-25T06:33:03;25.75;22.25;14.75
72854;PMS7003;60991;51.278;22.550;2023-04-25T06:34:33;21.50;21.50;14.00
72854;PMS7003;60991;51.278;22.550;2023-04-25T06:36:03;16.50;13.50;10.25
72854;PMS7003;60991;51.278;22.550;2023-04-25T06:37:33;19.75;19.00;14.25
72854;PMS7003;60991;51.278;22.550;2023-04-25T06:39:04;26.33;22.33;15.00
72854;PMS7003;60991;51.278;22.550;2023-04-25T06:40:34;19.25;17.50;14.00
72854;PMS7003;60991;51.278;22.550;2023-04-25T06:42:04;23.50;21.75;14.00
72854;PMS7003;60991;51.278;22.550;2023-04-25T06:43:34;21.00;15.50;11.25
72854;PMS7003;60991;51.278;22.550;2023-04-25T06:45:05;18.33;17.33;13.00
72854;PMS7003;60991;51.278;22.550;2023-04-25T06:46:35;17.75;14.75;12.00
72854;PMS7003;60991;51.278;22.550;2023-04-25T06:48:05;24.00;20.50;15.00
72854;PMS7003;60991;51.278;22.550;2023-04-25T06:49:36;27.00;25.00;15.00
72854;PMS7003;60991;51.278;22.550;2023-04-25T06:51:06;19.33;17.00;13.00
72854;PMS7003;60991;51.278;22.550;2023-04-25T06:52:36;21.00;18.50;14.00
72854;PMS7003;60991;51.278;22.550;2023-04-25T06:54:06;26.25;22.50;15.00
72854;PMS7003;60991;51.278;22.550;2023-04-25T06:55:37;27.00;22.50;15.00
72854;PMS7003;60991;51.278;22.550;2023-04-25T06:57:08;24.75;21.75;16.75
72854;PMS7003;60991;51.278;22.550;2023-04-25T06:58:38;22.75;18.50;13.75
72854;PMS7003;60991;51.278;22.550;2023-04-25T07:00:09;23.00;23.00;17.00
72854;PMS7003;60991;51.278;22.550;2023-04-25T07:01:39;21.00;20.25;14.75
72854;PMS7003;60991;51.278;22.550;2023-04-25T07:03:09;26.25;23.00;17.00
72854;PMS7003;60991;51.278;22.550;2023-04-25T07:04:39;27.25;22.50;14.50
72854;PMS7003;60991;51.278;22.550;2023-04-25T07:06:10;25.67;23.67;15.33
72854;PMS7003;60991;51.278;22.550;2023-04-25T07:07:40;24.25;21.25;14.25
72854;PMS7003;60991;51.278;22.550;2023-04-25T07:09:10;25.75;25.00;16.00
72854;PMS7003;60991;51.278;22.550;2023-04-25T07:10:41;24.50;20.25;15.00
72854;PMS7003;60991;51.278;22.550;2023-04-25T07:12:11;30.75;27.75;16.75
72854;PMS7003;60991;51.278;22.550;2023-04-25T07:13:41;26.25;24.50;16.75
72854;PMS7003;60991;51.278;22.550;2023-04-25T07:15:11;27.50;25.25;17.25
72854;PMS7003;60991;51.278;22.550;2023-04-25T07:16:42;36.75;25.25;17.00
72854;PMS7003;60991;51.278;22.550;2023-04-25T07:18:12;23.50;22.25;14.75
72854;PMS7003;60991;51.278;22.550;2023-04-25T07:19:42;26.33;26.33;15.67
72854;PMS7003;60991;51.278;22.550;2023-04-25T07:21:12;26.75;23.00;15.00
72854;PMS7003;60991;51.278;22.550;2023-04-25T07:22:42;19.67;19.67;13.33
72854;PMS7003;60991;51.278;22.550;2023-04-25T07:24:13;28.50;26.50;17.50
72854;PMS7003;60991;51.278;22.550;2023-04-25T07:25:43;25.25;23.25;15.25
72854;PMS7003;60991;51.278;22.550;2023-04-25T07:27:13;24.00;23.25;14.75
72854;PMS7003;60991;51.278;22.550;2023-04-25T07:28:43;26.25;23.75;14.75
72854;PMS7003;60991;51.278;22.550;2023-04-25T07:30:14;24.50;22.50;14.00
72854;PMS7003;60991;51.278;22.550;2023-04-25T07:31:44;27.50;24.50;17.50
72854;PMS7003;60991;51.278;22.550;2023-04-25T07:33:14;25.25;23.50;17.50
72854;PMS7003;60991;51.278;22.550;2023-04-25T07:34:44;22.00;20.50;15.00
72854;PMS7003;60991;51.278;22.550;2023-04-25T07:36:15;23.25;18.75;15.25
72854;PMS7003;60991;51.278;22.550;2023-04-25T07:37:45;23.33;17.00;13.00
72854;PMS7003;60991;51.278;22.550;2023-04-25T07:39:15;20.25;17.75;14.50
72854;PMS7003;60991;51.278;22.550;2023-04-25T07:40:47;23.25;20.50;16.00
72854;PMS7003;60991;51.278;22.550;2023-04-25T07:42:18;27.50;23.50;15.50
72854;PMS7003;60991;51.278;22.550;2023-04-25T07:43:49;27.33;20.33;15.33
72854;PMS7003;60991;51.278;22.550;2023-04-25T07:45:19;22.00;20.00;16.25
72854;PMS7003;60991;51.278;22.550;2023-04-25T07:46:49;28.00;24.00;14.00
72854;PMS7003;60991;51.278;22.550;2023-04-25T07:48:19;27.00;24.00;16.25
72854;PMS7003;60991;51.278;22.550;2023-04-25T07:49:49;23.75;20.50;13.75
72854;PMS7003;60991;51.278;22.550;2023-04-25T07:51:20;25.33;18.33;13.67
72854;PMS7003;60991;51.278;22.550;2023-04-25T07:52:50;23.75;18.75;13.75
72854;PMS7003;60991;51.278;22.550;2023-04-25T07:54:20;26.00;23.00;15.75
72854;PMS7003;60991;51.278;22.550;2023-04-25T07:55:50;17.00;16.00;11.25
72854;PMS7003;60991;51.278;22.550;2023-04-25T07:57:20;17.00;15.00;10.00
72854;PMS7003;60991;51.278;22.550;2023-04-25T07:58:51;17.75;13.25;9.50
72854;PMS7003;60991;51.278;22.550;2023-04-25T08:00:21;15.50;14.75;9.75
72854;PMS7003;60991;51.278;22.550;2023-04-25T08:01:51;13.00;12.75;8.00
72854;PMS7003;60991;51.278;22.550;2023-04-25T08:03:21;13.75;13.50;8.50
72854;PMS7003;60991;51.278;22.550;2023-04-25T08:04:51;10.50;10.25;8.00
72854;PMS7003;60991;51.278;22.550;2023-04-25T08:06:22;16.00;12.00;9.75
72854;PMS7003;60991;51.278;22.550;2023-04-25T08:07:52;9.00;9.00;6.00
72854;PMS7003;60991;51.278;22.550;2023-04-25T08:09:22;12.00;11.00;8.75
72854;PMS7003;60991;51.278;22.550;2023-04-25T08:10:52;9.75;9.50;8.00
72854;PMS7003;60991;51.278;22.550;2023-04-25T08:12:22;6.75;6.75;6.00
72854;PMS7003;60991;51.278;22.550;2023-04-25T08:13:53;7.00;7.00;6.00
72854;PMS7003;60991;51.278;22.550;2023-04-25T08:15:23;7.25;7.00;6.00
72854;PMS7003;60991;51.278;22.550;2023-04-25T08:16:53;7.50;7.00;6.00
72854;PMS7003;60991;51.278;22.550;2023-04-25T08:18:23;7.50;5.00;4.25
72854;PMS7003;60991;51.278;22.550;2023-04-25T08:19:53;10.25;5.00;5.00
72854;PMS7003;60991;51.278;22.550;2023-04-25T08:21:24;5.25;4.75;4.25